Cimarron, NM (87714)

10:22 PM MST on December 28, 2014 (GMT -0700)
Idlewild Community | Change Station
CLOSE
Current Station
Personal Weather Station
Location: Eagle Nest, NM
Elevation: 8658 ft
Nearby Weather Stations
Active Advisory: Special Statement

Elev 8658 ft 36.55 °N, 105.30 °W | Updated 13 minutes ago

Clear
Clear
6.6 °F
Feels Like 7 °F
N
0.0
Wind Variable Wind from SSW

Today
High -- | Low -- °F
--% Chance of Precip.
Yesterday
High -- | Low -- °F
Precip. -- in
7:11 AM 4:52 PM
First Quarter, 55% visible
Pressure 29.98 in
Visibility 10.0 miles
Clouds Clear
Windchill 7 °F
Dew Point 2 °F
Humidity 79%
Rainfall 0.00 in
Snow Depth Not available.
UV 0 out of 12
Pollen .10 out of 12
Air Quality Not available.
Flu Activity Not available.
METAR KAXX 290515Z AUTO 25011KT 10SM CLR M10/M16 A2998 RMK AO2 T10981160

More Conditions Fewer Conditions

Pressure 29.98 in
Visibility 10.0 miles
Clouds Clear
Windchill 7 °F
Dew Point 2 °F
Humidity 79%
Rainfall 0.00 in
Snow Depth Not available.
UV 0 out of 12
Pollen .10 out of 12
Air Quality Not available.
Flu Activity Not available.
METAR KAXX 290515Z AUTO 25011KT 10SM CLR M10/M16 A2998 RMK AO2 T10981160

More Conditions Fewer Conditions

10-Day Weather Forecast

Almanac

Astronomy

Dec. 28, 2014 Rise Set
Actual Time
Civil Twilight
Nautical Twilight
Astronomical Twilight
Moon
Length of Visible Light
Length of Day
Tomorrow will be .
, % of the Moon is Illuminated

Today's Extremes

State Highs State Lows

Community

WunderPhotos

Upload Photos

1,781,542 photos uploaded!

WunderBlogs® & News

Nearby

Air Quality

  Air Quality AQ Index Pollutant
Not available.

Snow Depth

Station Depth Elevation

Earthquake Activity

City Distance Mag. Time & Date
Minimum magnitude displayed is 2.5.

Coastal Water Temperatures

Place Temperature

Nearby Weather Stations